RYR73KY LEBL-EGPH
Flight info
| Callsign | RYR73KY |
|---|---|
| Flight time | N/A |
| Altitude | 32000 |
| Route | NATPI DCT EVNAM/N0438F380 DCT TUPAR UN861 ANG DCT AKIKI UN867 VASUX DCT TNT UN57 POL UN601 RIBEL DCT INPIP |
| Aircraft | B738/M-SDE3FGILRWY/SB1 |
Departure
| Time | N/A |
|---|---|
| Airport | Josep Tarradellas Barcelona-El Prat Airport (LEBL) |
Arrival
| Time | 2026-04-22 18:56 |
|---|---|
| Airport | Edinburgh Airport (EGPH) |
| Time | Latitude | Longitude | Altitude | Speed | Heading |
|---|---|---|---|---|---|
| 2026-04-22 16:42 | 41.67696 | 2.05095 | 17917 ft | 368 kts | 328° |
| 2026-04-22 16:43 | 41.69932 | 2.03387 | 18535 ft | 371 kts | 328° |
| 2026-04-22 16:43 | 41.72183 | 2.01666 | 19153 ft | 374 kts | 328° |
| 2026-04-22 16:43 | 41.74444 | 1.99936 | 19799 ft | 375 kts | 328° |
| 2026-04-22 16:43 | 41.76719 | 1.98194 | 20419 ft | 377 kts | 328° |
| 2026-04-22 16:44 | 41.79004 | 1.96442 | 20998 ft | 380 kts | 328° |
| 2026-04-22 16:44 | 41.81305 | 1.94678 | 21552 ft | 382 kts | 328° |
| 2026-04-22 16:44 | 41.83626 | 1.92896 | 22065 ft | 385 kts | 328° |
| 2026-04-22 16:44 | 41.85960 | 1.91102 | 22572 ft | 388 kts | 328° |
| 2026-04-22 16:45 | 41.88308 | 1.89295 | 23088 ft | 390 kts | 328° |
| 2026-04-22 16:45 | 41.90667 | 1.87480 | 23587 ft | 392 kts | 328° |
| 2026-04-22 16:45 | 41.93010 | 1.85675 | 24042 ft | 395 kts | 328° |
| 2026-04-22 16:45 | 41.95397 | 1.83834 | 24508 ft | 397 kts | 328° |
| 2026-04-22 16:46 | 41.97804 | 1.81977 | 24946 ft | 399 kts | 328° |
| 2026-04-22 16:46 | 42.00221 | 1.80109 | 25372 ft | 401 kts | 328° |
| 2026-04-22 16:46 | 42.02646 | 1.78233 | 25778 ft | 404 kts | 328° |
| 2026-04-22 16:46 | 42.05090 | 1.76342 | 26179 ft | 406 kts | 328° |
| 2026-04-22 16:47 | 42.07549 | 1.74437 | 26554 ft | 408 kts | 328° |
| 2026-04-22 16:47 | 42.10016 | 1.72525 | 26934 ft | 411 kts | 328° |
| 2026-04-22 16:47 | 42.11657 | 1.71251 | 27187 ft | 412 kts | 328° |
| 2026-04-22 16:47 | 42.14961 | 1.68686 | 27664 ft | 415 kts | 328° |
| 2026-04-22 16:48 | 42.17472 | 1.66735 | 27984 ft | 417 kts | 328° |
| 2026-04-22 16:48 | 42.19998 | 1.64769 | 28304 ft | 419 kts | 328° |
| 2026-04-22 16:48 | 42.22534 | 1.62794 | 28648 ft | 421 kts | 328° |
| 2026-04-22 16:48 | 42.25072 | 1.60817 | 28964 ft | 423 kts | 328° |
| 2026-04-22 16:49 | 42.27629 | 1.58822 | 29278 ft | 424 kts | 328° |
| 2026-04-22 16:49 | 42.30192 | 1.56819 | 29580 ft | 426 kts | 328° |
| 2026-04-22 16:49 | 42.32765 | 1.54808 | 29883 ft | 428 kts | 328° |
| 2026-04-22 16:49 | 42.35343 | 1.52791 | 30233 ft | 427 kts | 328° |
| 2026-04-22 16:50 | 42.37943 | 1.50858 | 30659 ft | 426 kts | 334° |
| 2026-04-22 16:50 | 42.40703 | 1.49378 | 31046 ft | 426 kts | 338° |
| 2026-04-22 16:50 | 42.43490 | 1.48017 | 31446 ft | 425 kts | 339° |
| 2026-04-22 16:50 | 42.46232 | 1.46698 | 31817 ft | 423 kts | 339° |
| 2026-04-22 16:51 | 42.49042 | 1.45342 | 32140 ft | 423 kts | 338° |
| 2026-04-22 16:51 | 42.51772 | 1.44010 | 32480 ft | 422 kts | 338° |
| 2026-04-22 16:51 | 42.54523 | 1.42654 | 32871 ft | 419 kts | 338° |
| 2026-04-22 16:51 | 42.57256 | 1.41296 | 33202 ft | 418 kts | 338° |
| 2026-04-22 16:52 | 42.59983 | 1.39932 | 33512 ft | 417 kts | 338° |
| 2026-04-22 16:52 | 42.62703 | 1.38569 | 33870 ft | 415 kts | 338° |
| 2026-04-22 16:52 | 42.65405 | 1.37210 | 34232 ft | 413 kts | 338° |
| 2026-04-22 16:52 | 42.68097 | 1.35854 | 34517 ft | 412 kts | 338° |
| 2026-04-22 16:53 | 42.70792 | 1.34496 | 34755 ft | 413 kts | 338° |
| 2026-04-22 16:53 | 42.73486 | 1.33136 | 35018 ft | 413 kts | 338° |
| 2026-04-22 16:53 | 42.76175 | 1.31778 | 35276 ft | 412 kts | 338° |
| 2026-04-22 16:53 | 42.78867 | 1.30416 | 35481 ft | 413 kts | 338° |
| 2026-04-22 16:54 | 42.81560 | 1.29054 | 35734 ft | 412 kts | 338° |
| 2026-04-22 16:54 | 42.84244 | 1.27694 | 36004 ft | 411 kts | 338° |
| 2026-04-22 16:54 | 42.86941 | 1.26327 | 35997 ft | 416 kts | 338° |
| 2026-04-22 16:55 | 42.92364 | 1.23574 | 36008 ft | 415 kts | 338° |
| 2026-04-22 16:55 | 42.97742 | 1.20842 | 36013 ft | 409 kts | 338° |
| 2026-04-22 16:56 | 43.03064 | 1.18132 | 36023 ft | 408 kts | 337° |
| 2026-04-22 16:56 | 43.08337 | 1.15440 | 36033 ft | 407 kts | 337° |
| 2026-04-22 16:57 | 43.13648 | 1.12724 | 36038 ft | 407 kts | 337° |
| 2026-04-22 16:57 | 43.18961 | 1.10004 | 36036 ft | 408 kts | 337° |
| 2026-04-22 16:58 | 43.23381 | 1.07736 | 36038 ft | 408 kts | 337° |
| 2026-04-22 16:58 | 43.28706 | 1.04999 | 36044 ft | 409 kts | 337° |
| 2026-04-22 16:59 | 43.34041 | 1.02252 | 36045 ft | 410 kts | 337° |
| 2026-04-22 16:59 | 43.39392 | 0.99492 | 36045 ft | 411 kts | 337° |
| 2026-04-22 17:00 | 43.44755 | 0.96719 | 36050 ft | 412 kts | 337° |
| 2026-04-22 17:00 | 43.52827 | 0.92537 | 36054 ft | 414 kts | 337° |
| 2026-04-22 17:01 | 43.58217 | 0.89738 | 36033 ft | 414 kts | 337° |
| 2026-04-22 17:01 | 43.63575 | 0.86951 | 36037 ft | 414 kts | 337° |
| 2026-04-22 17:02 | 43.69003 | 0.84121 | 36049 ft | 414 kts | 337° |
| 2026-04-22 17:02 | 43.74354 | 0.81325 | 36032 ft | 413 kts | 337° |
| 2026-04-22 17:03 | 43.79731 | 0.78512 | 36033 ft | 413 kts | 337° |
| 2026-04-22 17:03 | 43.85105 | 0.75694 | 36027 ft | 413 kts | 337° |
| 2026-04-22 17:04 | 43.90479 | 0.72871 | 36017 ft | 413 kts | 337° |
| 2026-04-22 17:04 | 43.95849 | 0.70045 | 36009 ft | 413 kts | 336° |
| 2026-04-22 17:05 | 44.01216 | 0.67215 | 36005 ft | 412 kts | 336° |
| 2026-04-22 17:05 | 44.06575 | 0.64382 | 36005 ft | 412 kts | 336° |
| 2026-04-22 17:06 | 44.11927 | 0.61548 | 35995 ft | 411 kts | 336° |
| 2026-04-22 17:06 | 44.17270 | 0.58714 | 35995 ft | 410 kts | 336° |
| 2026-04-22 17:07 | 44.22574 | 0.55895 | 35988 ft | 410 kts | 336° |
| 2026-04-22 17:07 | 44.27902 | 0.53058 | 35993 ft | 410 kts | 336° |
| 2026-04-22 17:08 | 44.33226 | 0.50217 | 35996 ft | 410 kts | 336° |
| 2026-04-22 17:08 | 44.38548 | 0.47372 | 35999 ft | 409 kts | 336° |
| 2026-04-22 17:09 | 44.43873 | 0.44520 | 36003 ft | 409 kts | 336° |
| 2026-04-22 17:09 | 44.49188 | 0.41667 | 35997 ft | 409 kts | 336° |
| 2026-04-22 17:10 | 44.54505 | 0.38809 | 36002 ft | 409 kts | 336° |
| 2026-04-22 17:10 | 44.59824 | 0.35942 | 35998 ft | 409 kts | 336° |
| 2026-04-22 17:11 | 44.65114 | 0.33086 | 36002 ft | 410 kts | 336° |
| 2026-04-22 17:11 | 44.70435 | 0.30207 | 36001 ft | 409 kts | 336° |
| 2026-04-22 17:12 | 44.75762 | 0.27320 | 35999 ft | 410 kts | 336° |
| 2026-04-22 17:12 | 44.81089 | 0.24427 | 35998 ft | 410 kts | 336° |
| 2026-04-22 17:13 | 44.86420 | 0.21527 | 35994 ft | 410 kts | 336° |
| 2026-04-22 17:13 | 44.91717 | 0.18640 | 36006 ft | 410 kts | 336° |
| 2026-04-22 17:14 | 44.97038 | 0.15733 | 36005 ft | 410 kts | 335° |
| 2026-04-22 17:14 | 45.02348 | 0.12826 | 36000 ft | 409 kts | 335° |
| 2026-04-22 17:15 | 45.07652 | 0.09916 | 35998 ft | 408 kts | 335° |
| 2026-04-22 17:15 | 45.12947 | 0.07007 | 36000 ft | 408 kts | 335° |
| 2026-04-22 17:16 | 45.18234 | 0.04096 | 36000 ft | 407 kts | 335° |
| 2026-04-22 17:16 | 45.23483 | 0.01199 | 35999 ft | 407 kts | 335° |
| 2026-04-22 17:17 | 45.28759 | -0.01718 | 35999 ft | 406 kts | 335° |
| 2026-04-22 17:17 | 45.34037 | -0.04642 | 36000 ft | 408 kts | 334° |
| 2026-04-22 17:18 | 45.39348 | -0.07591 | 36008 ft | 411 kts | 334° |
| 2026-04-22 17:18 | 45.44686 | -0.10562 | 36009 ft | 414 kts | 334° |
| 2026-04-22 17:19 | 45.55490 | -0.16589 | 36008 ft | 419 kts | 334° |
| 2026-04-22 17:20 | 45.66367 | -0.22683 | 36000 ft | 420 kts | 334° |
| 2026-04-22 17:21 | 45.74494 | -0.27251 | 35995 ft | 419 kts | 334° |
| 2026-04-22 17:22 | 45.82616 | -0.31832 | 35996 ft | 417 kts | 334° |
| 2026-04-22 17:23 | 45.90693 | -0.36402 | 36000 ft | 415 kts | 334° |
| 2026-04-22 17:23 | 45.98738 | -0.40969 | 36010 ft | 413 kts | 334° |
| 2026-04-22 17:24 | 46.04042 | -0.43989 | 36008 ft | 412 kts | 334° |
| 2026-04-22 17:24 | 46.09377 | -0.47031 | 36016 ft | 412 kts | 334° |
| 2026-04-22 17:25 | 46.14699 | -0.50073 | 36018 ft | 412 kts | 334° |
| 2026-04-22 17:25 | 46.20021 | -0.53122 | 36023 ft | 412 kts | 334° |
| 2026-04-22 17:26 | 46.25349 | -0.56179 | 36030 ft | 412 kts | 334° |
| 2026-04-22 17:26 | 46.30679 | -0.59245 | 36028 ft | 413 kts | 334° |
| 2026-04-22 17:27 | 46.35988 | -0.62305 | 36029 ft | 413 kts | 334° |
| 2026-04-22 17:27 | 46.41340 | -0.65382 | 36033 ft | 415 kts | 335° |
| 2026-04-22 17:28 | 46.47038 | -0.67141 | 36047 ft | 423 kts | 348° |
| 2026-04-22 17:28 | 46.52908 | -0.68062 | 36035 ft | 425 kts | 349° |
| 2026-04-22 17:29 | 46.58786 | -0.68986 | 36040 ft | 425 kts | 348° |
| 2026-04-22 17:29 | 46.64670 | -0.69952 | 36036 ft | 425 kts | 348° |
| 2026-04-22 17:30 | 46.70514 | -0.70935 | 36040 ft | 425 kts | 348° |
| 2026-04-22 17:30 | 46.76391 | -0.71928 | 36047 ft | 425 kts | 348° |
| 2026-04-22 17:31 | 46.82266 | -0.72923 | 36056 ft | 424 kts | 348° |
| 2026-04-22 17:31 | 46.88139 | -0.73920 | 36064 ft | 424 kts | 348° |
| 2026-04-22 17:32 | 46.93994 | -0.74917 | 36065 ft | 423 kts | 348° |
| 2026-04-22 17:32 | 46.99810 | -0.75907 | 36061 ft | 423 kts | 348° |
| 2026-04-22 17:33 | 47.05659 | -0.76906 | 36066 ft | 423 kts | 348° |
| 2026-04-22 17:33 | 47.11508 | -0.77908 | 36077 ft | 423 kts | 348° |
| 2026-04-22 17:34 | 47.17353 | -0.78911 | 36075 ft | 423 kts | 348° |
| 2026-04-22 17:34 | 47.23194 | -0.79916 | 36076 ft | 423 kts | 348° |
| 2026-04-22 17:35 | 47.29032 | -0.80922 | 36085 ft | 422 kts | 348° |
| 2026-04-22 17:35 | 47.34870 | -0.81931 | 36096 ft | 422 kts | 348° |
| 2026-04-22 17:36 | 47.40701 | -0.82939 | 36101 ft | 422 kts | 348° |
| 2026-04-22 17:36 | 47.46498 | -0.83948 | 36099 ft | 423 kts | 348° |
| 2026-04-22 17:37 | 47.52344 | -0.84964 | 36107 ft | 423 kts | 348° |
| 2026-04-22 17:37 | 47.58163 | -0.86243 | 36109 ft | 421 kts | 345° |
| 2026-04-22 17:38 | 47.63933 | -0.87819 | 36113 ft | 421 kts | 345° |
| 2026-04-22 17:38 | 47.69697 | -0.89408 | 36124 ft | 421 kts | 345° |
| 2026-04-22 17:39 | 47.75473 | -0.90968 | 36123 ft | 422 kts | 345° |
| 2026-04-22 17:40 | 47.84111 | -0.93276 | 36130 ft | 422 kts | 345° |
| 2026-04-22 17:40 | 47.89899 | -0.94822 | 36129 ft | 422 kts | 345° |
| 2026-04-22 17:41 | 47.95673 | -0.96368 | 36128 ft | 421 kts | 345° |
| 2026-04-22 17:41 | 48.01444 | -0.97919 | 36131 ft | 421 kts | 345° |
| 2026-04-22 17:42 | 48.07214 | -0.99474 | 36129 ft | 421 kts | 345° |
| 2026-04-22 17:42 | 48.12012 | -1.00769 | 36134 ft | 422 kts | 345° |
| 2026-04-22 17:43 | 48.18724 | -1.02585 | 36129 ft | 421 kts | 345° |
| 2026-04-22 17:43 | 48.24501 | -1.04152 | 36129 ft | 422 kts | 345° |
| 2026-04-22 17:44 | 48.30273 | -1.05719 | 36133 ft | 421 kts | 345° |
| 2026-04-22 17:44 | 48.36040 | -1.07290 | 36142 ft | 421 kts | 345° |
| 2026-04-22 17:45 | 48.41816 | -1.08866 | 36139 ft | 421 kts | 345° |
| 2026-04-22 17:45 | 48.47575 | -1.10441 | 36144 ft | 421 kts | 345° |
| 2026-04-22 17:46 | 48.53337 | -1.12022 | 36138 ft | 420 kts | 345° |
| 2026-04-22 17:46 | 48.59097 | -1.13606 | 36139 ft | 420 kts | 345° |
| 2026-04-22 17:47 | 48.64814 | -1.15182 | 36132 ft | 420 kts | 345° |
| 2026-04-22 17:47 | 48.70569 | -1.16770 | 36152 ft | 420 kts | 345° |
| 2026-04-22 17:48 | 48.75344 | -1.18092 | 36156 ft | 420 kts | 345° |
| 2026-04-22 17:48 | 48.82061 | -1.19955 | 36165 ft | 419 kts | 345° |
| 2026-04-22 17:49 | 48.87802 | -1.21553 | 36167 ft | 420 kts | 345° |
| 2026-04-22 17:49 | 48.93553 | -1.23156 | 36165 ft | 420 kts | 345° |
| 2026-04-22 17:50 | 48.99265 | -1.24751 | 36164 ft | 420 kts | 345° |
| 2026-04-22 17:50 | 49.05015 | -1.26363 | 36170 ft | 420 kts | 345° |
| 2026-04-22 17:51 | 49.10771 | -1.27978 | 36182 ft | 420 kts | 345° |
| 2026-04-22 17:51 | 49.16523 | -1.29596 | 36182 ft | 420 kts | 345° |
| 2026-04-22 17:52 | 49.21300 | -1.30944 | 36190 ft | 420 kts | 345° |
| 2026-04-22 17:52 | 49.27050 | -1.32569 | 36197 ft | 420 kts | 345° |
| 2026-04-22 17:53 | 49.32797 | -1.34197 | 36193 ft | 420 kts | 345° |
| 2026-04-22 17:53 | 49.38549 | -1.35831 | 36195 ft | 420 kts | 345° |
| 2026-04-22 17:54 | 49.44297 | -1.37467 | 36201 ft | 420 kts | 345° |
| 2026-04-22 17:54 | 49.50036 | -1.39105 | 36205 ft | 419 kts | 345° |
| 2026-04-22 17:55 | 49.55736 | -1.40734 | 36206 ft | 419 kts | 345° |
| 2026-04-22 17:55 | 49.61567 | -1.41634 | 36206 ft | 427 kts | 358° |
| 2026-04-22 17:56 | 49.67508 | -1.41049 | 36213 ft | 428 kts | 359° |
| 2026-04-22 17:56 | 49.73448 | -1.40430 | 36213 ft | 428 kts | 359° |
| 2026-04-22 17:57 | 49.79400 | -1.39868 | 36212 ft | 428 kts | 359° |
| 2026-04-22 17:57 | 49.85306 | -1.39334 | 36212 ft | 428 kts | 358° |
| 2026-04-22 17:58 | 49.91253 | -1.38796 | 36213 ft | 428 kts | 358° |
| 2026-04-22 17:58 | 49.97206 | -1.38255 | 36220 ft | 428 kts | 358° |
| 2026-04-22 17:59 | 50.03150 | -1.37436 | 36221 ft | 431 kts | 4° |
| 2026-04-22 17:59 | 50.09081 | -1.35912 | 36230 ft | 432 kts | 5° |
| 2026-04-22 18:00 | 50.14964 | -1.34344 | 36231 ft | 431 kts | 5° |
| 2026-04-22 18:00 | 50.20886 | -1.32839 | 36234 ft | 431 kts | 4° |
| 2026-04-22 18:01 | 50.26813 | -1.31368 | 36244 ft | 431 kts | 4° |
| 2026-04-22 18:01 | 50.32740 | -1.29895 | 36254 ft | 431 kts | 4° |
| 2026-04-22 18:02 | 50.38665 | -1.28415 | 36262 ft | 431 kts | 4° |
| 2026-04-22 18:02 | 50.44586 | -1.26934 | 36267 ft | 431 kts | 5° |
| 2026-04-22 18:03 | 50.50517 | -1.25645 | 36267 ft | 427 kts | 358° |
| 2026-04-22 18:03 | 50.56394 | -1.26258 | 36276 ft | 422 kts | 350° |
| 2026-04-22 18:04 | 50.62200 | -1.27245 | 36288 ft | 423 kts | 350° |
| 2026-04-22 18:04 | 50.68061 | -1.28216 | 36287 ft | 423 kts | 350° |
| 2026-04-22 18:05 | 50.73930 | -1.29148 | 36289 ft | 424 kts | 350° |
| 2026-04-22 18:05 | 50.79810 | -1.30065 | 36294 ft | 424 kts | 351° |
| 2026-04-22 18:06 | 50.85686 | -1.30977 | 36294 ft | 424 kts | 351° |
| 2026-04-22 18:06 | 50.91562 | -1.31895 | 36294 ft | 424 kts | 351° |
| 2026-04-22 18:07 | 50.97422 | -1.32814 | 36295 ft | 423 kts | 351° |
| 2026-04-22 18:07 | 51.03273 | -1.33733 | 36292 ft | 422 kts | 351° |
| 2026-04-22 18:08 | 51.09075 | -1.34646 | 36296 ft | 421 kts | 351° |
| 2026-04-22 18:08 | 51.14907 | -1.35567 | 36295 ft | 421 kts | 351° |
| 2026-04-22 18:09 | 51.20732 | -1.36486 | 36295 ft | 421 kts | 351° |
| 2026-04-22 18:09 | 51.26551 | -1.37411 | 36300 ft | 420 kts | 351° |
| 2026-04-22 18:10 | 51.32362 | -1.38336 | 36291 ft | 420 kts | 351° |
| 2026-04-22 18:10 | 51.38177 | -1.39265 | 36304 ft | 421 kts | 351° |
| 2026-04-22 18:11 | 51.44037 | -1.40204 | 35992 ft | 421 kts | 351° |
| 2026-04-22 18:11 | 51.46949 | -1.40668 | 35340 ft | 420 kts | 351° |
| 2026-04-22 18:11 | 51.49873 | -1.41137 | 34741 ft | 420 kts | 351° |
| 2026-04-22 18:11 | 51.52737 | -1.41595 | 34610 ft | 420 kts | 351° |
| 2026-04-22 18:12 | 51.55672 | -1.42071 | 34500 ft | 428 kts | 351° |
| 2026-04-22 18:12 | 51.58662 | -1.42557 | 34393 ft | 435 kts | 351° |
| 2026-04-22 18:12 | 51.60706 | -1.42889 | 34346 ft | 439 kts | 351° |
| 2026-04-22 18:13 | 51.67757 | -1.44024 | 34310 ft | 436 kts | 351° |
| 2026-04-22 18:13 | 51.73782 | -1.44997 | 34323 ft | 435 kts | 351° |
| 2026-04-22 18:14 | 51.79806 | -1.45974 | 34319 ft | 435 kts | 351° |
| 2026-04-22 18:14 | 51.85826 | -1.46955 | 34321 ft | 435 kts | 351° |
| 2026-04-22 18:15 | 51.91848 | -1.47937 | 34321 ft | 435 kts | 351° |
| 2026-04-22 18:15 | 51.97874 | -1.48924 | 34322 ft | 435 kts | 351° |
| 2026-04-22 18:16 | 52.03895 | -1.49914 | 34325 ft | 435 kts | 351° |
| 2026-04-22 18:16 | 52.09921 | -1.50906 | 34332 ft | 435 kts | 351° |
| 2026-04-22 18:17 | 52.15944 | -1.51902 | 34335 ft | 435 kts | 351° |
| 2026-04-22 18:17 | 52.21932 | -1.52893 | 34346 ft | 435 kts | 351° |
| 2026-04-22 18:18 | 52.27958 | -1.53892 | 34350 ft | 435 kts | 351° |
| 2026-04-22 18:18 | 52.33982 | -1.54893 | 34361 ft | 435 kts | 351° |
| 2026-04-22 18:19 | 52.40016 | -1.55902 | 34369 ft | 436 kts | 351° |
| 2026-04-22 18:19 | 52.46056 | -1.56913 | 34370 ft | 436 kts | 351° |
| 2026-04-22 18:20 | 52.52006 | -1.57911 | 34381 ft | 436 kts | 351° |
| 2026-04-22 18:20 | 52.58055 | -1.58930 | 34379 ft | 437 kts | 351° |
| 2026-04-22 18:21 | 52.63090 | -1.59780 | 34375 ft | 437 kts | 351° |
| 2026-04-22 18:21 | 52.69800 | -1.60915 | 34383 ft | 437 kts | 351° |
| 2026-04-22 18:22 | 52.75856 | -1.61944 | 34390 ft | 437 kts | 351° |
| 2026-04-22 18:22 | 52.81911 | -1.62974 | 34389 ft | 438 kts | 351° |
| 2026-04-22 18:23 | 52.87931 | -1.64001 | 34395 ft | 438 kts | 351° |
| 2026-04-22 18:23 | 52.94002 | -1.65040 | 34386 ft | 439 kts | 351° |
| 2026-04-22 18:24 | 53.03116 | -1.66607 | 34378 ft | 439 kts | 351° |
| 2026-04-22 18:24 | 53.08997 | -1.69020 | 34375 ft | 435 kts | 338° |
| 2026-04-22 18:25 | 53.11835 | -1.70798 | 34365 ft | 436 kts | 337° |
| 2026-04-22 18:25 | 53.17496 | -1.74415 | 34352 ft | 436 kts | 337° |
| 2026-04-22 18:26 | 53.26014 | -1.79776 | 34341 ft | 436 kts | 337° |
| 2026-04-22 18:26 | 53.31704 | -1.83330 | 34341 ft | 437 kts | 337° |
| 2026-04-22 18:27 | 53.37337 | -1.86926 | 34329 ft | 432 kts | 336° |
| 2026-04-22 18:27 | 53.42927 | -1.90622 | 34358 ft | 434 kts | 336° |
| 2026-04-22 18:28 | 53.48581 | -1.94375 | 34363 ft | 439 kts | 336° |
| 2026-04-22 18:28 | 53.54270 | -1.98145 | 34366 ft | 439 kts | 336° |
| 2026-04-22 18:29 | 53.59965 | -2.01920 | 34368 ft | 440 kts | 336° |
| 2026-04-22 18:29 | 53.65628 | -2.05683 | 34366 ft | 429 kts | 336° |
| 2026-04-22 18:30 | 53.73899 | -2.11202 | 34407 ft | 432 kts | 336° |
| 2026-04-22 18:31 | 53.79517 | -2.14969 | 34412 ft | 441 kts | 336° |
| 2026-04-22 18:31 | 53.85225 | -2.18800 | 34401 ft | 441 kts | 336° |
| 2026-04-22 18:32 | 53.90919 | -2.22633 | 34411 ft | 440 kts | 336° |
| 2026-04-22 18:32 | 53.96601 | -2.26471 | 34420 ft | 439 kts | 336° |
| 2026-04-22 18:33 | 54.02282 | -2.30320 | 34425 ft | 439 kts | 336° |
| 2026-04-22 18:33 | 54.07966 | -2.34181 | 34423 ft | 439 kts | 336° |
| 2026-04-22 18:34 | 54.13640 | -2.38046 | 34423 ft | 440 kts | 336° |
| 2026-04-22 18:34 | 54.19319 | -2.41929 | 34429 ft | 440 kts | 336° |
| 2026-04-22 18:35 | 54.25004 | -2.45828 | 34428 ft | 440 kts | 336° |
| 2026-04-22 18:35 | 54.30657 | -2.49716 | 34435 ft | 441 kts | 336° |
| 2026-04-22 18:36 | 54.36352 | -2.53643 | 34439 ft | 441 kts | 336° |
| 2026-04-22 18:36 | 54.42056 | -2.57588 | 34438 ft | 442 kts | 336° |
| 2026-04-22 18:37 | 54.47782 | -2.61564 | 34039 ft | 448 kts | 336° |
| 2026-04-22 18:37 | 54.50664 | -2.63568 | 33442 ft | 446 kts | 335° |
| 2026-04-22 18:37 | 54.52568 | -2.64893 | 32980 ft | 444 kts | 335° |
| 2026-04-22 18:37 | 54.56378 | -2.67548 | 32147 ft | 441 kts | 335° |
| 2026-04-22 18:38 | 54.59201 | -2.69519 | 31650 ft | 435 kts | 336° |
| 2026-04-22 18:38 | 54.61990 | -2.71469 | 31148 ft | 430 kts | 335° |
| 2026-04-22 18:38 | 54.64746 | -2.73399 | 30671 ft | 425 kts | 335° |
| 2026-04-22 18:39 | 54.70163 | -2.77203 | 29692 ft | 415 kts | 335° |
| 2026-04-22 18:39 | 54.72824 | -2.79075 | 29189 ft | 411 kts | 335° |
| 2026-04-22 18:39 | 54.75460 | -2.80934 | 28705 ft | 407 kts | 335° |
| 2026-04-22 18:39 | 54.78071 | -2.82777 | 28222 ft | 402 kts | 335° |
| 2026-04-22 18:40 | 54.80650 | -2.84600 | 27738 ft | 399 kts | 335° |
| 2026-04-22 18:40 | 54.83207 | -2.86410 | 27268 ft | 395 kts | 335° |
| 2026-04-22 18:40 | 54.85707 | -2.88182 | 26799 ft | 392 kts | 335° |
| 2026-04-22 18:40 | 54.88253 | -2.89990 | 26302 ft | 389 kts | 335° |
| 2026-04-22 18:41 | 54.90720 | -2.91764 | 25755 ft | 389 kts | 335° |
| 2026-04-22 18:41 | 54.93225 | -2.93583 | 25217 ft | 393 kts | 335° |
| 2026-04-22 18:41 | 54.95763 | -2.95431 | 24656 ft | 397 kts | 335° |
| 2026-04-22 18:41 | 54.98319 | -2.97293 | 24095 ft | 399 kts | 335° |
| 2026-04-22 18:42 | 55.00872 | -2.99152 | 23509 ft | 396 kts | 335° |
| 2026-04-22 18:42 | 55.03406 | -3.00998 | 22959 ft | 394 kts | 335° |
| 2026-04-22 18:42 | 55.05926 | -3.02837 | 22403 ft | 391 kts | 335° |
| 2026-04-22 18:42 | 55.08431 | -3.04668 | 21847 ft | 389 kts | 335° |
| 2026-04-22 18:43 | 55.10924 | -3.06490 | 21304 ft | 387 kts | 335° |
| 2026-04-22 18:43 | 55.13407 | -3.08309 | 20758 ft | 386 kts | 335° |
| 2026-04-22 18:43 | 55.15043 | -3.09509 | 20387 ft | 385 kts | 335° |
| 2026-04-22 18:43 | 55.17515 | -3.11322 | 19793 ft | 385 kts | 335° |
| 2026-04-22 18:44 | 55.19992 | -3.13139 | 19197 ft | 386 kts | 336° |
| 2026-04-22 18:44 | 55.22448 | -3.15043 | 18588 ft | 385 kts | 332° |
| 2026-04-22 18:44 | 55.25592 | -3.17942 | 17737 ft | 386 kts | 330° |
| 2026-04-22 18:44 | 55.27185 | -3.19469 | 17300 ft | 386 kts | 330° |
| 2026-04-22 18:45 | 55.29539 | -3.21745 | 16655 ft | 386 kts | 329° |
| 2026-04-22 18:45 | 55.31893 | -3.24036 | 16006 ft | 387 kts | 329° |
| 2026-04-22 18:45 | 55.34240 | -3.26338 | 15361 ft | 386 kts | 329° |
| 2026-04-22 18:45 | 55.36582 | -3.28651 | 14711 ft | 386 kts | 329° |
| 2026-04-22 18:46 | 55.38916 | -3.30969 | 14062 ft | 385 kts | 329° |
| 2026-04-22 18:46 | 55.41216 | -3.33267 | 13424 ft | 385 kts | 329° |
| 2026-04-22 18:46 | 55.43536 | -3.35594 | 12774 ft | 384 kts | 329° |
| 2026-04-22 18:46 | 55.45847 | -3.37925 | 12119 ft | 382 kts | 329° |
| 2026-04-22 18:47 | 55.48150 | -3.40264 | 11462 ft | 381 kts | 329° |
| 2026-04-22 18:47 | 55.50432 | -3.42601 | 10822 ft | 379 kts | 329° |
| 2026-04-22 18:47 | 55.52703 | -3.44947 | 10173 ft | 377 kts | 329° |
| 2026-04-22 18:47 | 55.54955 | -3.47296 | 9731 ft | 370 kts | 329° |
| 2026-04-22 18:48 | 55.57139 | -3.49602 | 9292 ft | 364 kts | 329° |
| 2026-04-22 18:48 | 55.59298 | -3.51900 | 8770 ft | 361 kts | 329° |
| 2026-04-22 18:48 | 55.61441 | -3.54199 | 8181 ft | 360 kts | 329° |
| 2026-04-22 18:48 | 55.63579 | -3.56506 | 7586 ft | 359 kts | 329° |
| 2026-04-22 18:49 | 55.65705 | -3.58810 | 6988 ft | 358 kts | 329° |
| 2026-04-22 18:49 | 55.67805 | -3.61092 | 6384 ft | 350 kts | 329° |
| 2026-04-22 18:49 | 55.69831 | -3.63302 | 5785 ft | 342 kts | 329° |
| 2026-04-22 18:49 | 55.71834 | -3.65496 | 5185 ft | 335 kts | 329° |
| 2026-04-22 18:50 | 55.73794 | -3.67659 | 4589 ft | 329 kts | 329° |
| 2026-04-22 18:50 | 55.75741 | -3.69734 | 3971 ft | 322 kts | 336° |
| 2026-04-22 18:50 | 55.77851 | -3.70700 | 3367 ft | 309 kts | 1° |
| 2026-04-22 18:50 | 55.79874 | -3.70016 | 3112 ft | 284 kts | 24° |
| 2026-04-22 18:51 | 55.81605 | -3.68625 | 3003 ft | 263 kts | 28° |
| 2026-04-22 18:51 | 55.83179 | -3.67265 | 2968 ft | 241 kts | 29° |
| 2026-04-22 18:51 | 55.84616 | -3.66019 | 2983 ft | 218 kts | 30° |
| 2026-04-22 18:51 | 55.85735 | -3.64464 | 2976 ft | 194 kts | 57° |
| 2026-04-22 18:52 | 55.86431 | -3.62545 | 2981 ft | 177 kts | 59° |
| 2026-04-22 18:52 | 55.87095 | -3.60711 | 2911 ft | 177 kts | 60° |
| 2026-04-22 18:52 | 55.87733 | -3.58846 | 2718 ft | 178 kts | 61° |
| 2026-04-22 18:52 | 55.88362 | -3.56981 | 2482 ft | 172 kts | 61° |
| 2026-04-22 18:53 | 55.88966 | -3.55183 | 2252 ft | 167 kts | 60° |
| 2026-04-22 18:53 | 55.89552 | -3.53433 | 2031 ft | 161 kts | 60° |
| 2026-04-22 18:53 | 55.90120 | -3.51740 | 1823 ft | 158 kts | 60° |
| 2026-04-22 18:53 | 55.90681 | -3.50077 | 1617 ft | 155 kts | 60° |
| 2026-04-22 18:54 | 55.91207 | -3.48514 | 1451 ft | 143 kts | 60° |
| 2026-04-22 18:54 | 55.91719 | -3.46989 | 1239 ft | 142 kts | 60° |
| 2026-04-22 18:54 | 55.92220 | -3.45500 | 1043 ft | 138 kts | 60° |
| 2026-04-22 18:54 | 55.92714 | -3.44030 | 867 ft | 138 kts | 60° |
| 2026-04-22 18:55 | 55.93197 | -3.42558 | 678 ft | 137 kts | 60° |
| 2026-04-22 18:55 | 55.93689 | -3.41098 | 470 ft | 137 kts | 59° |
| 2026-04-22 18:55 | 55.94183 | -3.39664 | 282 ft | 136 kts | 59° |
| 2026-04-22 18:55 | 55.94665 | -3.38238 | 119 ft | 131 kts | 58° |
| 2026-04-22 18:56 | 55.95061 | -3.37069 | 111 ft | 81 kts | 59° |
| 2026-04-22 18:56 | 55.95242 | -3.36534 | 111 ft | 20 kts | 59° |
| 2026-04-22 18:56 | 55.95247 | -3.36424 | 110 ft | 14 kts | 118° |
| 2026-04-22 18:56 | 55.95186 | -3.36343 | 112 ft | 10 kts | 149° |
| 2026-04-22 18:57 | 55.95142 | -3.36266 | 114 ft | 7 kts | 104° |
| 2026-04-22 18:57 | 55.95129 | -3.36184 | 115 ft | 7 kts | 105° |
| 2026-04-22 18:57 | 55.95117 | -3.36116 | 115 ft | 7 kts | 109° |